Terminal Aerodrome Forecast
Issued by NWS Shreveport, LA

Home | Current Version | Previous Version | Text Only | Print | Product List | Glossary On
Versions: 1 2 3 4 5 6 7 8 9 10 11 12 13 14 15 16 17 18
000
FTUS44 KSHV 210520
TAFGGG
TAF
KGGG 210520Z 2106/2206 18003KT P6SM BKN080 BKN250
      TEMPO 2112/2115 5SM BR BKN008
     FM211500 18006KT 5SM BR VCSH OVC008
     FM211800 19007KT P6SM OVC015
     FM212100 20010KT P6SM OVC025
     FM220000 21008KT P6SM SCT035 BKN150=

USA.gov is the U.S. government's official web portal to all federal, state and local government web resources and services.